Saint James, LA (70086)

5:45 PM CDT on July 03, 2015 (GMT -0500)
French Plantation | | Change Station
CLOSE
Current Station
Personal Weather Station
Location: Thibodaux, LA
Elevation: 20 ft
Nearby Weather Stations

Elev 20 ft 29.85 °N, 90.90 °W | Updated 13 minutes ago

Partly Cloudy
Partly Cloudy
93.4 °F
Feels Like 102 °F
N
4.2
Wind Variable Wind from SW

Today
High -- | Low -- °F
--% Chance of Precip.
Yesterday
High -- | Low -- °F
Precip. -- in
6:06 AM 8:08 PM
Waning Gibbous, 96% visible
Pressure 29.98 in
Visibility 7.0 miles
Clouds Clear
Heat Index 102 °F
Dew Point 72 °F
Humidity 50%
Rainfall 0.00 in
Snow Depth Not available.
UV 3 out of 12
Pollen 3.70 out of 12
Air Quality Not available.
Flu Activity Not available.
METAR KL38 032235Z AUTO 22005KT 7SM CLR 32/23 A2998 RMK AO2 T03230229

More Conditions Fewer Conditions

Pressure 29.98 in
Visibility 7.0 miles
Clouds Clear
Heat Index 102 °F
Dew Point 72 °F
Humidity 50%
Rainfall 0.00 in
Snow Depth Not available.
UV 3 out of 12
Pollen 3.70 out of 12
Air Quality Not available.
Flu Activity Not available.
METAR KL38 032235Z AUTO 22005KT 7SM CLR 32/23 A2998 RMK AO2 T03230229

More Conditions Fewer Conditions

10-Day Weather Forecast

×

Almanac

Astronomy

Jul. 03, 2015 Rise Set
Actual Time
Civil Twilight
Nautical Twilight
Astronomical Twilight
Moon
Length of Visible Light
Length of Day
Tomorrow will be .
, % of the Moon is Illuminated

Today's Extremes

State Highs State Lows

Community

WunderPhotos

Upload Photos

1,834,807 photos uploaded!

WunderBlogs® & News

Nearby

Air Quality

  Air Quality AQ Index Pollutant
Not available.

Snow Depth

Station Depth Elevation

Earthquake Activity

City Distance Mag. Time & Date
Minimum magnitude displayed is 2.5.

Coastal Water Temperatures

Place Temperature

Stations

Nearby Weather Stations

Station Location Temp. Windchill Dew Point Humidity Wind Precip. Elev Updated Type